Time,TemperatureF,DewpointF,PressureIn,WindDirection,WindDirectionDegrees,WindSpeedMPH,WindSpeedGustMPH,Humidity,HourlyPrecipIn,Conditions,Clouds,dailyrainin,SolarRadiationWatts/m^2,SoftwareType,DateUTC
2013-12-07 00:01:00,36.0,33.1,30.18,NNW,342,4.3,8.1,89,0.05,-RA,,0.00,0.0,WeatherDisplay:10.37,2013-12-07 05:01:00,
2013-12-07 00:02:00,36.0,33.1,30.18,NNW,339,5.2,5.8,89,0.06,-RA,,0.01,0.0,WeatherDisplay:10.37,2013-12-07 05:02:00,
2013-12-07 00:03:00,36.0,33.1,30.19,NNW,338,4.9,6.0,89,0.06,-RA,,0.01,0.0,WeatherDisplay:10.37,2013-12-07 05:03:00,
2013-12-07 00:04:00,36.0,33.1,30.18,NNW,339,4.7,5.8,89,0.06,-RA,,0.01,0.0,WeatherDisplay:10.37,2013-12-07 05:04:00,
2013-12-07 00:05:00,36.0,33.1,30.17,NNW,338,1.1,3.0,89,0.05,-RA,,0.01,0.0,WeatherDisplay:10.37,2013-12-07 05:05:00,
2013-12-07 00:10:00,36.0,33.1,30.18,NNW,336,1.0,4.6,89,0.05,-RA,,0.01,0.0,WeatherDisplay:10.37,2013-12-07 05:10:00,
2013-12-07 00:15:00,35.9,33.0,30.18,NNW,336,0.9,4.5,89,0.04,-RA,,0.01,0.0,WeatherDisplay:10.37,2013-12-07 05:15:00,
2013-12-07 00:19:00,35.9,33.0,30.18,NNW,331,5.9,5.9,89,0.04,-RA,,0.01,0.0,WeatherDisplay:10.37,2013-12-07 05:19:00,
2013-12-07 00:24:00,35.9,33.0,30.19,NNW,340,1.6,3.0,89,0.04,-RA,,0.01,0.0,WeatherDisplay:10.37,2013-12-07 05:24:00,
2013-12-07 00:29:00,35.9,33.0,30.18,NW,321,8.5,9.2,89,0.03,-RA,,0.01,0.0,WeatherDisplay:10.37,2013-12-07 05:29:00,
2013-12-07 00:34:00,35.9,33.0,30.19,NNW,338,4.2,8.1,89,0.03,-RA,,0.01,0.0,WeatherDisplay:10.37,2013-12-07 05:34:00,
2013-12-07 00:39:00,35.8,32.9,30.17,NNW,335,8.5,9.2,89,0.03,-RA,,0.01,0.0,WeatherDisplay:10.37,2013-12-07 05:39:00,
2013-12-07 00:44:00,35.8,32.9,30.17,NNW,332,5.3,8.1,89,0.02,OVC,,0.01,0.0,WeatherDisplay:10.37,2013-12-07 05:44:00,
2013-12-07 00:49:00,35.9,33.0,30.19,NNW,348,7.0,11.5,89,0.02,OVC,,0.01,0.0,WeatherDisplay:10.37,2013-12-07 05:49:00,
2013-12-07 00:54:00,35.8,32.9,30.19,NW,319,8.4,9.0,89,0.02,OVC,,0.01,0.0,WeatherDisplay:10.37,2013-12-07 05:54:00,
2013-12-07 00:59:00,35.8,32.9,30.19,NNW,335,9.7,9.7,89,0.01,OVC,,0.01,0.0,WeatherDisplay:10.37,2013-12-07 05:59:00,
2013-12-07 01:04:00,35.8,32.9,30.20,NNW,343,8.0,9.0,89,0.00,OVC,,0.01,0.0,WeatherDisplay:10.37,2013-12-07 06:04:00,
2013-12-07 01:09:00,35.8,32.9,30.20,NW,325,2.4,8.1,89,0.00,OVC,,0.01,0.0,WeatherDisplay:10.37,2013-12-07 06:09:00,
2013-12-07 01:14:00,35.8,32.9,30.21,North,350,0.9,4.6,89,0.00,-RA,,0.01,0.0,WeatherDisplay:10.37,2013-12-07 06:14:00,
2013-12-07 01:19:00,35.8,32.6,30.22,NNW,330,1.6,9.2,88,0.00,-RA,,0.01,0.0,WeatherDisplay:10.37,2013-12-07 06:19:00,
2013-12-07 01:24:00,35.8,32.6,30.21,North,11,7.4,8.1,88,0.00,-RA,,0.01,0.0,WeatherDisplay:10.37,2013-12-07 06:24:00,
2013-12-07 01:29:00,35.8,32.6,30.22,NNW,340,7.8,10.4,88,0.00,-RA,,0.01,0.0,WeatherDisplay:10.37,2013-12-07 06:29:00,
2013-12-07 01:34:00,35.8,32.6,30.21,NNW,344,9.1,18.4,88,0.00,-RA,,0.01,0.0,WeatherDisplay:10.37,2013-12-07 06:34:00,
2013-12-07 01:39:00,35.8,32.6,30.21,North,9,8.7,12.0,88,0.00,-RA,,0.01,0.0,WeatherDisplay:10.37,2013-12-07 06:39:00,
2013-12-07 01:44:00,35.8,32.6,30.21,North,5,4.4,11.5,88,0.00,-RA,,0.01,0.0,WeatherDisplay:10.37,2013-12-07 06:44:00,
2013-12-07 01:49:00,35.8,32.6,30.22,NW,323,6.4,9.2,88,0.00,-RA,,0.01,0.0,WeatherDisplay:10.37,2013-12-07 06:49:00,
2013-12-07 01:54:00,35.8,32.6,30.23,NNW,341,5.5,9.2,88,0.00,-RA,,0.01,0.0,WeatherDisplay:10.37,2013-12-07 06:54:00,
2013-12-07 01:59:00,35.8,32.6,30.23,NNW,338,6.1,9.2,88,0.00,-RA,,0.01,0.0,WeatherDisplay:10.37,2013-12-07 06:59:00,
2013-12-07 02:04:00,35.9,32.7,30.23,North,360,7.5,10.5,88,0.00,-RA,,0.01,0.0,WeatherDisplay:10.37,2013-12-07 07:04:00,
2013-12-07 02:09:00,35.8,32.6,30.24,NNW,342,6.9,10.5,88,0.00,-RA,,0.01,0.0,WeatherDisplay:10.37,2013-12-07 07:09:00,
2013-12-07 02:14:00,35.9,32.7,30.25,NW,311,3.9,6.0,88,0.00,OVC,,0.01,0.0,WeatherDisplay:10.37,2013-12-07 07:14:00,
2013-12-07 02:19:00,35.9,32.7,30.24,NW,308,5.5,10.4,88,0.00,OVC,,0.01,0.0,WeatherDisplay:10.37,2013-12-07 07:19:00,
2013-12-07 02:24:00,35.9,32.7,30.24,NW,323,4.2,9.2,88,0.00,OVC,,0.01,0.0,WeatherDisplay:10.37,2013-12-07 07:24:00,
2013-12-07 02:29:00,35.8,32.6,30.24,NW,318,5.3,19.6,88,0.00,OVC,,0.01,0.0,WeatherDisplay:10.37,2013-12-07 07:29:00,
2013-12-07 02:34:00,35.8,32.6,30.25,NW,323,6.1,9.2,88,0.00,OVC,,0.01,0.0,WeatherDisplay:10.37,2013-12-07 07:34:00,
2013-12-07 02:39:00,35.6,32.4,30.25,NNW,333,8.1,10.4,88,0.00,OVC,,0.01,0.0,WeatherDisplay:10.37,2013-12-07 07:39:00,
2013-12-07 02:44:00,35.6,32.4,30.25,NNW,332,9.0,10.4,88,0.00,OVC,,0.01,0.0,WeatherDisplay:10.37,2013-12-07 07:44:00,
2013-12-07 02:49:00,35.5,32.3,30.24,NNW,344,6.7,9.2,88,0.00,OVC,,0.01,0.0,WeatherDisplay:10.37,2013-12-07 07:49:00,
2013-12-07 02:54:00,35.5,32.3,30.25,NW,319,6.8,9.2,88,0.00,OVC,,0.01,0.0,WeatherDisplay:10.37,2013-12-07 07:54:00,
2013-12-07 02:59:00,35.3,32.1,30.25,NNW,336,3.7,9.2,88,0.00,OVC,,0.01,0.0,WeatherDisplay:10.37,2013-12-07 07:59:00,
2013-12-07 03:04:00,35.3,32.1,30.25,NW,325,10.6,10.6,88,0.00,OVC,,0.01,0.0,WeatherDisplay:10.37,2013-12-07 08:04:00,
2013-12-07 03:09:00,35.3,32.1,30.25,NNW,327,7.4,10.4,88,0.00,OVC,,0.01,0.0,WeatherDisplay:10.37,2013-12-07 08:09:00,
2013-12-07 03:14:00,35.3,31.8,30.25,NNW,327,3.0,5.8,87,0.00,OVC,,0.01,0.0,WeatherDisplay:10.37,2013-12-07 08:14:00,
2013-12-07 03:19:00,35.3,31.8,30.25,NNW,327,0.9,4.6,87,0.00,OVC,,0.01,0.0,WeatherDisplay:10.37,2013-12-07 08:19:00,
2013-12-07 03:24:00,35.3,31.8,30.25,NNW,347,2.4,4.5,87,0.00,OVC,,0.01,0.0,WeatherDisplay:10.37,2013-12-07 08:24:00,
2013-12-07 03:29:00,35.2,31.7,30.25,NNW,338,3.1,4.6,87,0.00,OVC,,0.01,0.0,WeatherDisplay:10.37,2013-12-07 08:29:00,
2013-12-07 03:34:00,35.0,31.5,30.25,NNW,335,0.0,3.5,87,0.00,OVC,,0.01,0.0,WeatherDisplay:10.37,2013-12-07 08:34:00,
2013-12-07 03:39:00,34.9,31.4,30.25,NNW,334,3.6,4.6,87,0.00,OVC,,0.01,0.0,WeatherDisplay:10.37,2013-12-07 08:39:00,
2013-12-07 03:44:00,34.7,31.2,30.25,NNW,333,3.1,3.5,87,0.00,OVC,,0.01,0.0,WeatherDisplay:10.37,2013-12-07 08:44:00,
2013-12-07 03:49:00,34.7,31.2,30.25,NNW,333,0.8,5.8,87,0.00,OVC,,0.01,0.0,WeatherDisplay:10.37,2013-12-07 08:49:00,
2013-12-07 03:54:00,34.7,31.2,30.25,NNW,331,0.7,3.5,87,0.00,OVC,,0.01,0.0,WeatherDisplay:10.37,2013-12-07 08:54:00,
2013-12-07 03:59:00,34.7,31.2,30.25,NNW,331,0.4,1.5,87,0.00,OVC,,0.01,0.0,WeatherDisplay:10.37,2013-12-07 08:59:00,
2013-12-07 04:04:00,34.7,31.2,30.26,NNW,329,0.1,1.2,87,0.00,OVC,,0.01,0.0,WeatherDisplay:10.37,2013-12-07 09:04:00,
2013-12-07 04:09:00,34.9,31.4,30.26,NNW,330,0.0,0.0,87,0.00,OVC,,0.01,0.0,WeatherDisplay:10.37,2013-12-07 09:09:00,
2013-12-07 04:14:00,34.9,31.4,30.27,NNW,330,0.0,0.0,87,0.00,OVC,,0.01,0.0,WeatherDisplay:10.37,2013-12-07 09:14:00,
2013-12-07 04:19:00,34.9,31.4,30.27,NNW,330,1.3,3.5,87,0.00,OVC,,0.01,0.0,WeatherDisplay:10.37,2013-12-07 09:19:00,
2013-12-07 04:24:00,35.0,31.5,30.27,NNW,329,1.2,4.6,87,0.00,OVC,,0.01,0.0,WeatherDisplay:10.37,2013-12-07 09:24:00,
2013-12-07 04:29:00,35.0,31.5,30.27,NNW,329,0.8,4.5,87,0.00,OVC,,0.01,0.0,WeatherDisplay:10.37,2013-12-07 09:29:00,
2013-12-07 04:34:00,35.0,31.5,30.27,NNW,328,0.1,1.5,87,0.00,OVC,,0.01,0.0,WeatherDisplay:10.37,2013-12-07 09:34:00,
2013-12-07 04:39:00,35.0,31.5,30.27,NNW,327,1.9,3.0,87,0.00,OVC,,0.01,0.0,WeatherDisplay:10.37,2013-12-07 09:39:00,
2013-12-07 04:44:00,35.0,31.5,30.27,WNW,287,3.3,6.0,87,0.00,OVC,,0.01,0.0,WeatherDisplay:10.37,2013-12-07 09:44:00,
2013-12-07 04:49:00,35.0,31.5,30.27,WNW,303,0.4,3.5,87,0.00,OVC,,0.01,0.0,WeatherDisplay:10.37,2013-12-07 09:49:00,
2013-12-07 04:54:00,35.0,31.5,30.28,WNW,301,2.9,5.8,87,0.00,OVC,,0.01,0.0,WeatherDisplay:10.37,2013-12-07 09:54:00,
2013-12-07 04:59:00,35.0,31.5,30.28,NW,307,4.3,4.6,87,0.00,OVC,,0.01,0.0,WeatherDisplay:10.37,2013-12-07 09:59:00,
2013-12-07 05:04:00,35.0,31.5,30.28,NW,317,5.6,6.0,87,0.00,OVC,,0.01,0.0,WeatherDisplay:10.37,2013-12-07 10:04:00,
2013-12-07 05:09:00,35.0,31.5,30.28,WNW,298,5.5,6.0,87,0.00,OVC,,0.01,0.0,WeatherDisplay:10.37,2013-12-07 10:09:00,
2013-12-07 05:14:00,35.0,31.5,30.29,NNW,329,5.5,6.0,87,0.00,OVC,,0.01,0.0,WeatherDisplay:10.37,2013-12-07 10:14:00,
2013-12-07 05:19:00,35.0,31.5,30.30,NW,324,2.3,6.0,87,0.00,OVC,,0.01,0.0,WeatherDisplay:10.37,2013-12-07 10:19:00,
2013-12-07 05:24:00,35.0,31.5,30.30,NW,315,6.8,13.8,87,0.00,OVC,,0.01,0.0,WeatherDisplay:10.37,2013-12-07 10:24:00,
2013-12-07 05:29:00,35.0,31.5,30.30,NW,309,6.0,6.0,87,0.00,OVC,,0.01,0.0,WeatherDisplay:10.37,2013-12-07 10:29:00,
2013-12-07 05:34:00,34.9,31.4,30.30,NW,309,4.6,4.6,87,0.00,OVC,,0.01,0.0,WeatherDisplay:10.37,2013-12-07 10:34:00,
2013-12-07 05:39:00,34.9,31.1,30.30,NW,309,5.8,8.1,86,0.00,OVC,,0.01,0.0,WeatherDisplay:10.37,2013-12-07 10:39:00,
2013-12-07 05:44:00,35.0,31.2,30.31,NW,309,4.5,4.6,86,0.00,OVC,,0.01,0.0,WeatherDisplay:10.37,2013-12-07 10:44:00,
2013-12-07 05:49:00,35.0,31.2,30.31,NW,309,5.5,5.8,86,0.00,OVC,,0.01,0.0,WeatherDisplay:10.37,2013-12-07 10:49:00,
2013-12-07 05:54:00,35.2,31.4,30.31,NW,309,1.2,3.5,86,0.00,OVC,,0.01,0.0,WeatherDisplay:10.37,2013-12-07 10:54:00,
2013-12-07 05:59:00,35.2,31.4,30.31,NW,317,3.4,5.8,86,0.00,OVC,,0.01,0.0,WeatherDisplay:10.37,2013-12-07 10:59:00,
2013-12-07 06:04:00,35.2,31.4,30.32,NW,314,5.9,6.0,86,0.00,OVC,,0.01,0.0,WeatherDisplay:10.37,2013-12-07 11:04:00,
2013-12-07 06:09:00,35.2,31.4,30.32,NW,314,5.9,7.5,86,0.00,OVC,,0.01,0.0,WeatherDisplay:10.37,2013-12-07 11:09:00,
2013-12-07 06:14:00,35.2,31.4,30.33,NW,314,5.1,6.0,86,0.00,OVC,,0.01,0.0,WeatherDisplay:10.37,2013-12-07 11:14:00,
2013-12-07 06:19:00,35.0,30.9,30.33,NW,314,7.6,9.2,85,0.00,OVC,,0.01,0.0,WeatherDisplay:10.37,2013-12-07 11:19:00,
2013-12-07 06:24:00,34.9,30.8,30.33,NW,313,2.5,5.8,85,0.00,OVC,,0.01,0.0,WeatherDisplay:10.37,2013-12-07 11:24:00,
2013-12-07 06:29:00,34.7,30.7,30.33,NW,313,5.6,6.0,85,0.00,OVC,,0.01,0.0,WeatherDisplay:10.37,2013-12-07 11:29:00,
2013-12-07 06:34:00,34.7,30.7,30.33,NW,313,3.0,4.6,85,0.00,OVC,,0.01,0.0,WeatherDisplay:10.37,2013-12-07 11:34:00,
2013-12-07 06:39:00,34.7,30.4,30.33,NW,320,3.6,8.1,84,0.00,OVC,,0.01,0.0,WeatherDisplay:10.37,2013-12-07 11:39:00,
2013-12-07 06:44:00,34.7,30.4,30.34,NNW,331,3.8,5.8,84,0.00,OVC,,0.01,0.0,WeatherDisplay:10.37,2013-12-07 11:44:00,
2013-12-07 06:49:00,34.9,30.6,30.34,NNW,329,2.2,4.6,84,0.00,OVC,,0.01,0.0,WeatherDisplay:10.37,2013-12-07 11:49:00,
2013-12-07 06:54:00,34.9,30.6,30.34,NNW,330,2.5,4.6,84,0.00,OVC,,0.01,0.0,WeatherDisplay:10.37,2013-12-07 11:54:00,
2013-12-07 06:59:00,34.9,30.3,30.34,NNW,330,0.0,0.0,83,0.00,OVC,,0.01,0.0,WeatherDisplay:10.37,2013-12-07 11:59:00,
2013-12-07 07:04:00,34.9,30.3,30.34,NNW,329,0.0,1.2,83,0.00,OVC,,0.01,0.0,WeatherDisplay:10.37,2013-12-07 12:04:00,
2013-12-07 07:09:00,34.9,30.0,30.35,NNW,331,3.3,4.5,82,0.00,OVC,,0.01,0.0,WeatherDisplay:10.37,2013-12-07 12:09:00,
2013-12-07 07:14:00,34.9,30.0,30.35,NNW,331,0.5,4.5,82,0.00,BKN,,0.01,0.0,WeatherDisplay:10.37,2013-12-07 12:14:00,
2013-12-07 07:19:00,35.0,29.8,30.35,NNW,331,3.3,4.6,81,0.00,BKN,,0.01,0.0,WeatherDisplay:10.37,2013-12-07 12:19:00,
2013-12-07 07:24:00,35.0,29.8,30.36,NNW,332,6.2,7.5,81,0.00,BKN,,0.01,5.0,WeatherDisplay:10.37,2013-12-07 12:24:00,
2013-12-07 07:29:00,35.2,29.6,30.36,NNW,340,7.9,9.2,80,0.00,BKN,,0.01,9.0,WeatherDisplay:10.37,2013-12-07 12:29:00,
2013-12-07 07:34:00,35.2,29.3,30.36,NW,315,7.2,8.1,79,0.00,BKN,,0.01,14.0,WeatherDisplay:10.37,2013-12-07 12:34:00,
2013-12-07 07:39:00,35.2,29.0,30.36,NW,314,6.9,8.1,78,0.00,BKN,,0.01,23.0,WeatherDisplay:10.37,2013-12-07 12:39:00,
2013-12-07 07:44:00,35.2,29.0,30.37,NW,315,2.7,4.6,78,0.00,BKN,,0.01,35.0,WeatherDisplay:10.37,2013-12-07 12:44:00,
2013-12-07 07:49:00,35.2,29.0,30.36,NW,315,2.0,3.5,78,0.00,BKN,,0.01,39.0,WeatherDisplay:10.37,2013-12-07 12:49:00,
2013-12-07 07:54:00,35.2,28.7,30.37,NW,313,3.8,4.6,77,0.00,BKN,,0.01,40.0,WeatherDisplay:10.37,2013-12-07 12:54:00,
2013-12-07 07:59:00,35.2,28.7,30.37,NW,319,7.1,7.5,77,0.00,BKN,,0.01,40.0,WeatherDisplay:10.37,2013-12-07 12:59:00,
2013-12-07 08:04:00,35.0,28.5,30.38,NW,325,9.8,10.4,77,0.00,BKN,,0.01,42.0,WeatherDisplay:10.37,2013-12-07 13:04:00,
2013-12-07 08:09:00,35.0,28.2,30.38,NW,319,5.6,10.4,76,0.00,BKN,,0.01,49.0,WeatherDisplay:10.37,2013-12-07 13:09:00,
2013-12-07 08:14:00,35.0,28.2,30.38,NNW,333,7.0,8.1,76,0.00,BKN,,0.01,65.0,WeatherDisplay:10.37,2013-12-07 13:14:00,
2013-12-07 08:19:00,35.2,28.1,30.38,NNW,327,7.4,10.4,75,0.00,BKN,,0.01,70.0,WeatherDisplay:10.37,2013-12-07 13:19:00,
2013-12-07 08:24:00,35.3,28.2,30.39,NNW,333,10.4,12.0,75,0.00,BKN,,0.01,77.0,WeatherDisplay:10.37,2013-12-07 13:24:00,
2013-12-07 08:29:00,35.3,28.2,30.39,NNW,328,7.0,10.4,75,0.00,BKN,,0.01,88.0,WeatherDisplay:10.37,2013-12-07 13:29:00,
2013-12-07 08:34:00,35.5,28.0,30.39,NNW,327,3.9,5.8,74,0.00,BKN,,0.01,86.0,WeatherDisplay:10.37,2013-12-07 13:34:00,
2013-12-07 08:39:00,35.5,28.0,30.39,NNW,342,7.4,9.0,74,0.00,BKN,,0.01,90.0,WeatherDisplay:10.37,2013-12-07 13:39:00,
2013-12-07 08:44:00,35.5,28.0,30.39,North,5,2.4,4.5,74,0.00,BKN,,0.01,84.0,WeatherDisplay:10.37,2013-12-07 13:44:00,
2013-12-07 08:49:00,35.5,27.7,30.39,NW,318,6.6,8.1,73,0.00,BKN,,0.01,79.0,WeatherDisplay:10.37,2013-12-07 13:49:00,
2013-12-07 08:54:00,35.5,27.7,30.40,NW,315,1.9,5.8,73,0.00,BKN,,0.01,91.0,WeatherDisplay:10.37,2013-12-07 13:54:00,
2013-12-07 08:59:00,35.5,27.7,30.40,NW,325,7.8,8.1,73,0.00,BKN,,0.01,107.0,WeatherDisplay:10.37,2013-12-07 13:59:00,
2013-12-07 09:04:00,35.6,27.5,30.40,NW,312,6.6,10.5,72,0.00,OVC,,0.01,125.0,WeatherDisplay:10.37,2013-12-07 14:04:00,
2013-12-07 09:09:00,35.8,27.7,30.41,NNW,338,5.0,10.4,72,0.00,OVC,,0.01,121.0,WeatherDisplay:10.37,2013-12-07 14:09:00,
2013-12-07 09:14:00,35.9,27.7,30.41,NNW,337,12.0,13.8,72,0.00,OVC,,0.01,139.0,WeatherDisplay:10.37,2013-12-07 14:14:00,
2013-12-07 09:19:00,35.9,27.4,30.41,WNW,298,13.0,15.0,71,0.00,OVC,,0.01,193.0,WeatherDisplay:10.37,2013-12-07 14:19:00,
2013-12-07 09:24:00,36.0,27.2,30.41,NW,310,15.4,16.1,70,0.00,OVC,,0.01,125.0,WeatherDisplay:10.37,2013-12-07 14:24:00,
2013-12-07 09:29:00,35.9,26.4,30.41,NW,323,6.3,10.4,68,0.00,OVC,,0.01,151.0,WeatherDisplay:10.37,2013-12-07 14:29:00,
2013-12-07 09:34:00,36.0,26.5,30.42,WNW,297,10.6,15.0,68,0.00,OVC,,0.01,165.0,WeatherDisplay:10.37,2013-12-07 14:34:00,
2013-12-07 09:39:00,36.0,26.5,30.42,NW,307,13.0,15.0,68,0.00,OVC,,0.01,192.0,WeatherDisplay:10.37,2013-12-07 14:39:00,
2013-12-07 09:44:00,36.3,26.4,30.42,NW,313,12.0,13.8,67,0.00,OVC,,0.01,214.0,WeatherDisplay:10.37,2013-12-07 14:44:00,
2013-12-07 09:49:00,36.5,26.2,30.42,WNW,288,15.6,18.4,66,0.00,OVC,,0.01,225.0,WeatherDisplay:10.37,2013-12-07 14:49:00,
2013-12-07 09:54:00,36.5,26.2,30.43,NNW,338,11.5,18.4,66,0.00,OVC,,0.01,274.0,WeatherDisplay:10.37,2013-12-07 14:54:00,
2013-12-07 09:59:00,37.0,26.7,30.44,WNW,299,13.1,15.0,66,0.00,OVC,,0.01,424.0,WeatherDisplay:10.37,2013-12-07 14:59:00,
2013-12-07 10:04:00,37.8,27.5,30.44,NNW,346,16.8,19.5,66,0.00,BKN,,0.01,411.0,WeatherDisplay:10.37,2013-12-07 15:04:00,
2013-12-07 10:09:00,38.0,27.6,30.45,NW,317,6.1,10.4,66,0.00,BKN,,0.01,376.0,WeatherDisplay:10.37,2013-12-07 15:09:00,
2013-12-07 10:14:00,37.3,25.8,30.45,North,9,12.9,19.6,63,0.00,BKN,,0.01,243.0,WeatherDisplay:10.37,2013-12-07 15:14:00,
2013-12-07 10:19:00,37.0,25.9,30.45,North,355,10.0,19.6,64,0.00,BKN,,0.01,163.0,WeatherDisplay:10.37,2013-12-07 15:19:00,
2013-12-07 10:24:00,36.8,26.1,30.45,North,5,17.0,18.4,65,0.00,BKN,,0.01,139.0,WeatherDisplay:10.37,2013-12-07 15:24:00,
2013-12-07 10:29:00,36.5,25.8,30.45,NNE,31,8.7,11.5,65,0.00,BKN,,0.01,113.0,WeatherDisplay:10.37,2013-12-07 15:29:00,
2013-12-07 10:34:00,36.5,25.5,30.45,NNW,327,8.0,9.2,64,0.00,BKN,,0.01,109.0,WeatherDisplay:10.37,2013-12-07 15:34:00,
2013-12-07 10:39:00,36.5,25.8,30.44,NW,304,3.4,4.6,65,0.00,BKN,,0.01,111.0,WeatherDisplay:10.37,2013-12-07 15:39:00,
2013-12-07 10:44:00,36.3,25.3,30.45,North,350,13.2,16.5,64,0.00,BKN,,0.01,158.0,WeatherDisplay:10.37,2013-12-07 15:44:00,
2013-12-07 10:49:00,36.5,25.8,30.45,WNW,298,12.1,13.5,65,0.00,BKN,,0.01,174.0,WeatherDisplay:10.37,2013-12-07 15:49:00,
2013-12-07 10:54:00,36.5,25.8,30.44,NNW,335,8.1,10.5,65,0.00,BKN,,0.01,207.0,WeatherDisplay:10.37,2013-12-07 15:54:00,
2013-12-07 10:59:00,36.5,25.5,30.45,NW,312,9.8,16.1,64,0.00,BKN,,0.01,144.0,WeatherDisplay:10.37,2013-12-07 15:59:00,
2013-12-07 11:04:00,36.3,25.3,30.45,NW,313,6.1,11.5,64,0.00,OVC,,0.01,139.0,WeatherDisplay:10.37,2013-12-07 16:04:00,
2013-12-07 11:09:00,36.3,25.3,30.44,NNW,336,4.5,6.0,64,0.00,OVC,,0.01,160.0,WeatherDisplay:10.37,2013-12-07 16:09:00,
2013-12-07 11:14:00,36.3,24.9,30.44,NW,319,3.2,8.1,63,0.00,OVC,,0.01,155.0,WeatherDisplay:10.37,2013-12-07 16:14:00,
2013-12-07 11:19:00,36.3,25.3,30.45,NW,309,6.9,10.5,64,0.00,OVC,,0.01,165.0,WeatherDisplay:10.37,2013-12-07 16:19:00,
2013-12-07 11:24:00,36.3,24.9,30.45,WNW,295,7.6,9.0,63,0.00,OVC,,0.01,178.0,WeatherDisplay:10.37,2013-12-07 16:24:00,
2013-12-07 11:29:00,36.5,25.1,30.45,NNW,333,8.6,18.0,63,0.00,OVC,,0.01,283.0,WeatherDisplay:10.37,2013-12-07 16:29:00,
2013-12-07 11:34:00,36.8,25.4,30.44,NNW,348,15.4,18.4,63,0.00,OVC,,0.01,418.0,WeatherDisplay:10.37,2013-12-07 16:34:00,
2013-12-07 11:39:00,37.5,26.0,30.45,WNW,291,8.1,9.2,63,0.00,OVC,,0.01,362.0,WeatherDisplay:10.37,2013-12-07 16:39:00,
2013-12-07 11:44:00,37.8,25.9,30.44,North,355,10.7,15.0,62,0.00,OVC,,0.01,287.0,WeatherDisplay:10.37,2013-12-07 16:44:00,
2013-12-07 11:49:00,37.3,25.1,30.44,NNW,329,14.4,20.7,61,0.00,OVC,,0.01,346.0,WeatherDisplay:10.37,2013-12-07 16:49:00,
2013-12-07 11:54:00,37.2,25.0,30.44,WNW,290,12.7,12.7,61,0.00,OVC,,0.01,353.0,WeatherDisplay:10.37,2013-12-07 16:54:00,
2013-12-07 11:59:00,37.6,25.7,30.44,NW,311,10.0,18.0,62,0.00,OVC,,0.01,301.0,WeatherDisplay:10.37,2013-12-07 16:59:00,
2013-12-07 12:04:00,37.3,25.1,30.43,North,355,19.1,20.7,61,0.00,OVC,,0.01,352.0,WeatherDisplay:10.37,2013-12-07 17:04:00,
2013-12-07 12:09:00,37.2,25.0,30.43,North,351,11.7,13.8,61,0.00,OVC,,0.01,318.0,WeatherDisplay:10.37,2013-12-07 17:09:00,
2013-12-07 12:14:00,37.2,25.0,30.43,WNW,302,18.4,18.4,61,0.00,BKN,,0.01,323.0,WeatherDisplay:10.37,2013-12-07 17:14:00,
2013-12-07 12:19:00,37.3,25.5,30.43,WNW,296,13.0,15.0,62,0.00,BKN,,0.01,381.0,WeatherDisplay:10.37,2013-12-07 17:19:00,
2013-12-07 12:24:00,37.9,26.4,30.44,NNW,331,10.3,13.8,63,0.00,BKN,,0.01,392.0,WeatherDisplay:10.37,2013-12-07 17:24:00,
2013-12-07 12:29:00,37.9,25.6,30.44,WNW,301,10.7,13.8,61,0.00,BKN,,0.01,359.0,WeatherDisplay:10.37,2013-12-07 17:29:00,
2013-12-07 12:34:00,38.2,26.3,30.44,WNW,298,8.7,9.2,62,0.00,BKN,,0.01,332.0,WeatherDisplay:10.37,2013-12-07 17:34:00,
2013-12-07 12:39:00,37.9,25.2,30.44,NNW,337,8.7,9.2,60,0.00,BKN,,0.01,322.0,WeatherDisplay:10.37,2013-12-07 17:39:00,
2013-12-07 12:44:00,37.8,25.5,30.43,North,355,9.5,13.8,61,0.00,BKN,,0.01,230.0,WeatherDisplay:10.37,2013-12-07 17:44:00,
2013-12-07 12:49:00,37.5,24.9,30.43,North,5,11.1,11.1,60,0.00,BKN,,0.01,253.0,WeatherDisplay:10.37,2013-12-07 17:49:00,
2013-12-07 12:54:00,37.3,24.7,30.44,NNW,348,12.0,13.8,60,0.00,BKN,,0.01,195.0,WeatherDisplay:10.37,2013-12-07 17:54:00,
2013-12-07 12:59:00,37.0,24.4,30.43,NNW,343,8.6,10.4,60,0.00,BKN,,0.01,202.0,WeatherDisplay:10.37,2013-12-07 17:59:00,
2013-12-07 13:04:00,37.2,25.0,30.44,NNW,340,6.6,8.1,61,0.00,BKN,,0.01,155.0,WeatherDisplay:10.37,2013-12-07 18:04:00,
2013-12-07 13:09:00,37.2,25.0,30.43,North,355,9.9,10.4,61,0.00,BKN,,0.01,149.0,WeatherDisplay:10.37,2013-12-07 18:09:00,
2013-12-07 13:14:00,37.0,24.4,30.43,NW,318,7.9,10.4,60,0.00,BKN,,0.01,151.0,WeatherDisplay:10.37,2013-12-07 18:14:00,
2013-12-07 13:19:00,37.0,24.8,30.43,NNW,342,4.2,8.1,61,0.00,BKN,,0.01,158.0,WeatherDisplay:10.37,2013-12-07 18:19:00,
2013-12-07 13:24:00,37.2,24.6,30.43,WNW,302,5.7,7.5,60,0.00,BKN,,0.01,118.0,WeatherDisplay:10.37,2013-12-07 18:24:00,
2013-12-07 13:29:00,37.2,24.6,30.43,NE,34,1.1,3.5,60,0.00,BKN,,0.01,95.0,WeatherDisplay:10.37,2013-12-07 18:29:00,
2013-12-07 13:34:00,37.0,24.0,30.43,North,360,4.4,8.1,59,0.00,BKN,,0.01,84.0,WeatherDisplay:10.37,2013-12-07 18:34:00,
2013-12-07 13:39:00,37.0,24.0,30.43,NNW,331,8.5,9.2,59,0.00,BKN,,0.01,90.0,WeatherDisplay:10.37,2013-12-07 18:39:00,
2013-12-07 13:44:00,37.0,24.0,30.43,NNW,329,15.1,16.1,59,0.00,BKN,,0.01,105.0,WeatherDisplay:10.37,2013-12-07 18:44:00,
2013-12-07 13:49:00,37.0,24.0,30.43,NNW,327,10.2,15.0,59,0.00,BKN,,0.01,165.0,WeatherDisplay:10.37,2013-12-07 18:49:00,
2013-12-07 13:54:00,37.2,24.2,30.43,North,355,10.0,11.5,59,0.00,BKN,,0.01,169.0,WeatherDisplay:10.37,2013-12-07 18:54:00,
2013-12-07 13:59:00,37.2,24.2,30.43,NNW,336,10.0,18.0,59,0.00,BKN,,0.01,155.0,WeatherDisplay:10.37,2013-12-07 18:59:00,
2013-12-07 14:04:00,37.2,23.8,30.43,NNW,348,9.4,15.0,58,0.00,BKN,,0.01,265.0,WeatherDisplay:10.37,2013-12-07 19:04:00,
2013-12-07 14:09:00,37.2,22.9,30.43,NNW,333,10.9,10.9,56,0.00,BKN,,0.01,162.0,WeatherDisplay:10.37,2013-12-07 19:09:00,
2013-12-07 14:14:00,37.5,24.1,30.43,NNW,346,6.2,9.2,58,0.00,BKN,,0.01,186.0,WeatherDisplay:10.37,2013-12-07 19:14:00,
2013-12-07 14:19:00,37.6,23.7,30.43,NW,314,13.4,15.0,57,0.00,BKN,,0.01,214.0,WeatherDisplay:10.37,2013-12-07 19:19:00,
2013-12-07 14:24:00,37.8,23.9,30.43,North,355,8.9,15.0,57,0.00,BKN,,0.01,162.0,WeatherDisplay:10.37,2013-12-07 19:24:00,
2013-12-07 14:29:00,37.6,23.3,30.43,NW,317,13.5,16.1,56,0.00,BKN,,0.01,137.0,WeatherDisplay:10.37,2013-12-07 19:29:00,
2013-12-07 14:34:00,37.5,23.2,30.43,NNW,329,9.0,12.0,56,0.00,BKN,,0.01,114.0,WeatherDisplay:10.37,2013-12-07 19:34:00,
2013-12-07 14:39:00,37.2,22.9,30.43,NNW,348,11.6,13.5,56,0.00,BKN,,0.01,105.0,WeatherDisplay:10.37,2013-12-07 19:39:00,
2013-12-07 14:44:00,36.8,22.6,30.44,NNW,336,13.3,16.1,56,0.00,BKN,,0.01,98.0,WeatherDisplay:10.37,2013-12-07 19:44:00,
2013-12-07 14:49:00,36.5,22.7,30.44,NNW,339,3.5,8.1,57,0.00,BKN,,0.01,121.0,WeatherDisplay:10.37,2013-12-07 19:49:00,
2013-12-07 14:54:00,36.5,23.1,30.44,North,5,5.5,6.0,58,0.00,BKN,,0.01,113.0,WeatherDisplay:10.37,2013-12-07 19:54:00,
2013-12-07 14:59:00,36.8,23.0,30.44,NNW,329,9.0,9.0,57,0.00,BKN,,0.01,195.0,WeatherDisplay:10.37,2013-12-07 19:59:00,
2013-12-07 15:04:00,37.3,23.4,30.44,NNW,332,11.3,15.0,57,0.00,BKN,,0.01,178.0,WeatherDisplay:10.37,2013-12-07 20:04:00,
2013-12-07 15:09:00,37.6,23.7,30.44,NW,323,8.9,16.1,57,0.00,BKN,,0.01,193.0,WeatherDisplay:10.37,2013-12-07 20:09:00,
2013-12-07 15:14:00,37.6,22.9,30.44,WNW,301,8.6,13.8,55,0.00,BKN,,0.01,193.0,WeatherDisplay:10.37,2013-12-07 20:14:00,
2013-12-07 15:19:00,37.6,22.9,30.45,NNW,338,11.5,13.8,55,0.00,BKN,,0.01,144.0,WeatherDisplay:10.37,2013-12-07 20:19:00,
2013-12-07 15:24:00,37.3,22.6,30.44,North,350,11.6,13.5,55,0.00,BKN,,0.01,158.0,WeatherDisplay:10.37,2013-12-07 20:24:00,
2013-12-07 15:29:00,37.3,22.6,30.45,NNW,341,8.3,9.2,55,0.00,BKN,,0.01,134.0,WeatherDisplay:10.37,2013-12-07 20:29:00,
2013-12-07 15:34:00,37.0,22.3,30.45,NNW,333,7.8,10.4,55,0.00,BKN,,0.01,83.0,WeatherDisplay:10.37,2013-12-07 20:34:00,
2013-12-07 15:39:00,36.8,21.7,30.45,NW,325,12.3,15.0,54,0.00,BKN,,0.01,95.0,WeatherDisplay:10.37,2013-12-07 20:39:00,
2013-12-07 15:44:00,36.6,21.5,30.45,NW,318,12.5,16.5,54,0.00,BKN,,0.01,86.0,WeatherDisplay:10.37,2013-12-07 20:44:00,
2013-12-07 15:49:00,36.6,21.5,30.45,NNW,344,10.9,13.8,54,0.00,BKN,,0.01,69.0,WeatherDisplay:10.37,2013-12-07 20:49:00,
2013-12-07 15:54:00,36.5,21.4,30.45,NNW,328,5.2,8.1,54,0.00,BKN,,0.01,77.0,WeatherDisplay:10.37,2013-12-07 20:54:00,
2013-12-07 15:59:00,36.3,21.7,30.45,NNW,333,10.0,10.5,55,0.00,BKN,,0.01,58.0,WeatherDisplay:10.37,2013-12-07 20:59:00,
2013-12-07 16:04:00,36.2,21.6,30.46,NNW,333,5.7,8.1,55,0.00,OVC,,0.01,49.0,WeatherDisplay:10.37,2013-12-07 21:04:00,
2013-12-07 16:09:00,36.0,20.9,30.45,WNW,286,15.5,19.5,54,0.00,OVC,,0.01,44.0,WeatherDisplay:10.37,2013-12-07 21:09:00,
2013-12-07 16:14:00,35.8,20.8,30.45,NW,313,9.0,10.5,54,0.00,OVC,,0.01,40.0,WeatherDisplay:10.37,2013-12-07 21:14:00,
2013-12-07 16:19:00,35.6,20.6,30.46,NNW,340,8.6,11.5,54,0.00,OVC,,0.01,32.0,WeatherDisplay:10.37,2013-12-07 21:19:00,
2013-12-07 16:24:00,35.5,20.5,30.46,North,355,5.0,8.1,54,0.00,OVC,,0.01,26.0,WeatherDisplay:10.37,2013-12-07 21:24:00,
2013-12-07 16:29:00,35.3,20.7,30.46,North,360,5.9,10.4,55,0.00,OVC,,0.01,19.0,WeatherDisplay:10.37,2013-12-07 21:29:00,
2013-12-07 16:34:00,34.9,20.8,30.47,North,5,7.5,9.2,56,0.00,OVC,,0.01,14.0,WeatherDisplay:10.37,2013-12-07 21:34:00,
2013-12-07 16:39:00,34.4,20.7,30.47,NNE,28,5.1,6.0,57,0.00,OVC,,0.01,9.0,WeatherDisplay:10.37,2013-12-07 21:39:00,
2013-12-07 16:44:00,34.1,20.9,30.47,NNW,344,6.0,9.0,58,0.00,OVC,,0.01,5.0,WeatherDisplay:10.37,2013-12-07 21:44:00,
2013-12-07 16:49:00,34.0,20.3,30.47,NW,319,6.6,8.1,57,0.00,OVC,,0.01,0.0,WeatherDisplay:10.37,2013-12-07 21:49:00,
2013-12-07 16:54:00,33.7,20.1,30.47,NNW,329,0.7,4.6,57,0.00,OVC,,0.01,0.0,WeatherDisplay:10.37,2013-12-07 21:54:00,
2013-12-07 16:59:00,33.5,20.3,30.47,NNW,327,0.2,4.6,58,0.00,OVC,,0.01,0.0,WeatherDisplay:10.37,2013-12-07 21:59:00,
2013-12-07 17:04:00,33.2,20.4,30.48,NNW,328,0.8,1.2,59,0.00,BKN,,0.01,0.0,WeatherDisplay:10.37,2013-12-07 22:04:00,
2013-12-07 17:09:00,33.1,20.3,30.48,NNE,12,0.3,1.5,59,0.00,BKN,,0.01,0.0,WeatherDisplay:10.37,2013-12-07 22:09:00,
2013-12-07 17:14:00,32.8,20.4,30.49,NNE,12,0.0,0.0,60,0.00,BKN,,0.01,0.0,WeatherDisplay:10.37,2013-12-07 22:14:00,
2013-12-07 17:19:00,32.5,20.1,30.49,NNE,12,0.0,0.0,60,0.00,BKN,,0.01,0.0,WeatherDisplay:10.37,2013-12-07 22:19:00,
2013-12-07 17:24:00,32.2,20.2,30.49,North,9,1.1,3.5,61,0.00,BKN,,0.01,0.0,WeatherDisplay:10.37,2013-12-07 22:24:00,
2013-12-07 17:29:00,32.1,20.5,30.49,NW,322,3.0,8.1,62,0.00,BKN,,0.01,0.0,WeatherDisplay:10.37,2013-12-07 22:29:00,
2013-12-07 17:35:00,32.1,20.9,30.49,NNW,331,5.3,5.8,63,0.00,BKN,,0.01,0.0,WeatherDisplay:10.37,2013-12-07 22:35:00,
2013-12-07 17:40:00,32.1,20.5,30.49,NNW,347,10.1,12.0,62,0.00,BKN,,0.01,0.0,WeatherDisplay:10.37,2013-12-07 22:40:00,
2013-12-07 17:45:00,32.2,19.9,30.50,NW,311,7.7,8.1,60,0.00,BKN,,0.01,0.0,WeatherDisplay:10.37,2013-12-07 22:45:00,
2013-12-07 17:50:00,32.2,19.9,30.50,NW,319,4.9,10.4,60,0.00,BKN,,0.01,0.0,WeatherDisplay:10.37,2013-12-07 22:50:00,
2013-12-07 17:55:00,32.4,19.7,30.50,NNW,336,9.4,11.5,59,0.00,BKN,,0.01,0.0,WeatherDisplay:10.37,2013-12-07 22:55:00,
2013-12-07 18:00:00,32.4,19.3,30.50,North,355,6.8,9.2,58,0.00,BKN,,0.01,0.0,WeatherDisplay:10.37,2013-12-07 23:00:00,
2013-12-07 18:05:00,32.4,18.8,30.51,NNW,348,0.9,4.6,57,0.00,BKN,,0.01,0.0,WeatherDisplay:10.37,2013-12-07 23:05:00,
2013-12-07 18:10:00,32.2,18.7,30.51,NW,321,0.6,3.5,57,0.00,BKN,,0.01,0.0,WeatherDisplay:10.37,2013-12-07 23:10:00,
2013-12-07 18:15:00,31.9,18.4,30.51,NW,321,7.0,7.5,57,0.00,BKN,,0.01,0.0,WeatherDisplay:10.37,2013-12-07 23:15:00,
2013-12-07 18:20:00,31.9,18.4,30.51,NW,315,2.1,7.5,57,0.00,BKN,,0.01,0.0,WeatherDisplay:10.37,2013-12-07 23:20:00,
2013-12-07 18:25:00,32.1,18.6,30.52,North,360,7.3,8.1,57,0.00,BKN,,0.01,0.0,WeatherDisplay:10.37,2013-12-07 23:25:00,
2013-12-07 18:30:00,32.1,18.6,30.52,NNW,331,0.4,3.0,57,0.00,BKN,,0.01,0.0,WeatherDisplay:10.37,2013-12-07 23:30:00,
2013-12-07 18:35:00,31.9,18.4,30.52,NNW,329,3.4,8.1,57,0.00,BKN,,0.01,0.0,WeatherDisplay:10.37,2013-12-07 23:35:00,
2013-12-07 18:40:00,31.8,18.3,30.52,NNW,346,7.5,11.5,57,0.00,BKN,,0.01,0.0,WeatherDisplay:10.37,2013-12-07 23:40:00,
2013-12-07 18:45:00,31.6,18.1,30.52,NW,322,6.1,9.2,57,0.00,BKN,,0.01,0.0,WeatherDisplay:10.37,2013-12-07 23:45:00,
2013-12-07 18:50:00,31.5,18.0,30.53,NW,319,4.1,8.1,57,0.00,BKN,,0.01,0.0,WeatherDisplay:10.37,2013-12-07 23:50:00,
2013-12-07 18:55:00,31.5,18.0,30.53,NW,324,6.1,7.5,57,0.00,BKN,,0.01,0.0,WeatherDisplay:10.37,2013-12-07 23:55:00,
2013-12-07 19:00:00,31.5,17.6,30.53,NW,323,6.3,6.3,56,0.00,BKN,,0.01,0.0,WeatherDisplay:10.37,2013-12-08 00:00:00,
2013-12-07 19:05:00,31.3,17.4,30.53,NNW,327,3.5,6.0,56,0.00,FEW,,0.01,0.0,WeatherDisplay:10.37,2013-12-08 00:05:00,
2013-12-07 19:10:00,31.2,17.7,30.53,NW,325,7.7,10.5,57,0.00,FEW,,0.01,0.0,WeatherDisplay:10.37,2013-12-08 00:10:00,
2013-12-07 19:15:00,31.2,17.7,30.53,NNW,340,6.6,13.8,57,0.00,FEW,,0.01,0.0,WeatherDisplay:10.37,2013-12-08 00:15:00,
2013-12-07 19:20:00,31.3,17.4,30.54,NW,325,10.3,10.4,56,0.00,FEW,,0.01,0.0,WeatherDisplay:10.37,2013-12-08 00:20:00,
2013-12-07 19:25:00,31.2,17.7,30.54,NNW,333,6.0,8.1,57,0.00,FEW,,0.01,0.0,WeatherDisplay:10.37,2013-12-08 00:25:00,
2013-12-07 19:30:00,31.0,17.5,30.54,NNW,333,8.6,8.6,57,0.00,FEW,,0.01,0.0,WeatherDisplay:10.37,2013-12-08 00:30:00,
2013-12-07 19:35:00,30.9,17.4,30.55,NW,325,3.2,4.6,57,0.00,FEW,,0.01,0.0,WeatherDisplay:10.37,2013-12-08 00:35:00,
2013-12-07 19:40:00,30.7,17.3,30.55,NW,325,0.3,3.0,57,0.00,FEW,,0.01,0.0,WeatherDisplay:10.37,2013-12-08 00:40:00,
2013-12-07 19:45:00,30.7,17.3,30.55,NW,325,0.0,1.5,57,0.00,FEW,,0.01,0.0,WeatherDisplay:10.37,2013-12-08 00:45:00,
2013-12-07 19:50:00,30.6,17.6,30.55,NW,325,4.1,4.6,58,0.00,FEW,,0.01,0.0,WeatherDisplay:10.37,2013-12-08 00:50:00,
2013-12-07 19:55:00,30.4,17.4,30.55,NNW,336,7.7,9.0,58,0.00,FEW,,0.01,0.0,WeatherDisplay:10.37,2013-12-08 00:55:00,
2013-12-07 20:00:00,30.6,17.6,30.55,NNW,334,8.4,9.2,58,0.00,FEW,,0.01,0.0,WeatherDisplay:10.37,2013-12-08 01:00:00,
2013-12-07 20:05:00,30.7,17.7,30.55,NW,321,3.5,6.0,58,0.00,BKN,,0.01,0.0,WeatherDisplay:10.37,2013-12-08 01:05:00,
2013-12-07 20:10:00,30.6,17.6,30.55,NW,324,3.1,5.8,58,0.00,BKN,,0.01,0.0,WeatherDisplay:10.37,2013-12-08 01:10:00,
2013-12-07 20:15:00,30.6,17.6,30.56,NNE,28,1.9,4.5,58,0.00,BKN,,0.01,0.0,WeatherDisplay:10.37,2013-12-08 01:15:00,
2013-12-07 20:20:00,30.6,17.6,30.56,East,95,0.0,1.2,58,0.00,BKN,,0.01,0.0,WeatherDisplay:10.37,2013-12-08 01:20:00,
2013-12-07 20:25:00,30.3,17.7,30.55,NNW,348,3.2,4.5,59,0.00,BKN,,0.01,0.0,WeatherDisplay:10.37,2013-12-08 01:25:00,
2013-12-07 20:30:00,30.1,17.5,30.55,North,349,4.9,7.5,59,0.00,BKN,,0.01,0.0,WeatherDisplay:10.37,2013-12-08 01:30:00,
2013-12-07 20:35:00,30.1,17.5,30.55,North,349,0.0,0.0,59,0.00,BKN,,0.01,0.0,WeatherDisplay:10.37,2013-12-08 01:35:00,
2013-12-07 20:40:00,29.8,17.6,30.55,NNW,348,2.0,4.6,60,0.00,BKN,,0.01,0.0,WeatherDisplay:10.37,2013-12-08 01:40:00,
2013-12-07 20:45:00,29.8,17.6,30.55,NNW,333,4.3,9.2,60,0.00,BKN,,0.01,0.0,WeatherDisplay:10.37,2013-12-08 01:45:00,
2013-12-07 20:50:00,29.5,17.3,30.54,NW,325,5.3,8.1,60,0.00,BKN,,0.01,0.0,WeatherDisplay:10.37,2013-12-08 01:50:00,
2013-12-07 20:55:00,29.7,17.5,30.55,NW,314,4.4,4.6,60,0.00,BKN,,0.01,0.0,WeatherDisplay:10.37,2013-12-08 01:55:00,
2013-12-07 21:00:00,29.7,17.5,30.56,NW,320,0.0,0.0,60,0.00,BKN,,0.01,0.0,WeatherDisplay:10.37,2013-12-08 02:00:00,
2013-12-07 21:05:00,29.5,17.3,30.56,NNW,336,0.7,3.0,60,0.00,BKN,,0.01,0.0,WeatherDisplay:10.37,2013-12-08 02:05:00,
2013-12-07 21:10:00,29.5,17.3,30.56,ENE,63,2.7,7.5,60,0.00,BKN,,0.01,0.0,WeatherDisplay:10.37,2013-12-08 02:10:00,
2013-12-07 21:15:00,29.5,17.3,30.55,NNE,16,5.2,5.2,60,0.00,OVC,,0.01,0.0,WeatherDisplay:10.37,2013-12-08 02:15:00,
2013-12-07 21:20:00,29.7,17.5,30.55,NNE,16,0.5,1.5,60,0.00,OVC,,0.01,0.0,WeatherDisplay:10.37,2013-12-08 02:20:00,
2013-12-07 21:25:00,29.4,17.2,30.56,NNE,15,0.1,1.2,60,0.00,OVC,,0.01,0.0,WeatherDisplay:10.37,2013-12-08 02:25:00,
2013-12-07 21:30:00,29.3,17.5,30.56,NNW,348,0.0,0.0,61,0.00,OVC,,0.01,0.0,WeatherDisplay:10.37,2013-12-08 02:30:00,
2013-12-07 21:35:00,29.1,17.3,30.56,NNW,348,0.0,0.0,61,0.00,OVC,,0.01,0.0,WeatherDisplay:10.37,2013-12-08 02:35:00,
2013-12-07 21:40:00,29.0,17.6,30.56,NNW,348,0.0,0.0,62,0.00,OVC,,0.01,0.0,WeatherDisplay:10.37,2013-12-08 02:40:00,
2013-12-07 21:45:00,28.8,17.4,30.57,NNW,348,0.0,0.0,62,0.00,OVC,,0.01,0.0,WeatherDisplay:10.37,2013-12-08 02:45:00,
2013-12-07 21:50:00,28.5,17.1,30.57,NNW,348,0.0,0.0,62,0.00,OVC,,0.01,0.0,WeatherDisplay:10.37,2013-12-08 02:50:00,
2013-12-07 21:55:00,28.2,17.2,30.57,NNW,340,3.5,6.0,63,0.00,OVC,,0.01,0.0,WeatherDisplay:10.37,2013-12-08 02:55:00,
2013-12-07 22:00:00,28.2,17.6,30.56,NNW,332,3.8,4.6,64,0.00,OVC,,0.01,0.0,WeatherDisplay:10.37,2013-12-08 03:00:00,
2013-12-07 22:05:00,28.4,17.8,30.57,NE,45,1.1,3.0,64,0.00,OVC,,0.01,0.0,WeatherDisplay:10.37,2013-12-08 03:05:00,
2013-12-07 22:10:00,28.5,17.5,30.57,NE,46,0.0,4.6,63,0.00,OVC,,0.01,0.0,WeatherDisplay:10.37,2013-12-08 03:10:00,
2013-12-07 22:15:00,28.5,17.5,30.57,NE,46,0.0,0.0,63,0.00,BKN,,0.01,0.0,WeatherDisplay:10.37,2013-12-08 03:15:00,
2013-12-07 22:20:00,28.4,17.8,30.57,NNE,26,0.0,1.2,64,0.00,BKN,,0.01,0.0,WeatherDisplay:10.37,2013-12-08 03:20:00,
2013-12-07 22:25:00,28.2,17.6,30.56,NNE,26,0.0,0.0,64,0.00,BKN,,0.01,0.0,WeatherDisplay:10.37,2013-12-08 03:25:00,
2013-12-07 22:30:00,28.1,17.5,30.57,NNE,26,0.0,0.0,64,0.00,BKN,,0.01,0.0,WeatherDisplay:10.37,2013-12-08 03:30:00,
2013-12-07 22:35:00,27.9,17.3,30.57,NNE,26,0.0,0.0,64,0.00,BKN,,0.01,0.0,WeatherDisplay:10.37,2013-12-08 03:35:00,
2013-12-07 22:40:00,27.6,17.4,30.57,North,11,3.2,4.5,65,0.00,BKN,,0.01,0.0,WeatherDisplay:10.37,2013-12-08 03:40:00,
2013-12-07 22:45:00,27.8,17.9,30.56,NNW,346,5.7,6.0,66,0.00,BKN,,0.01,0.0,WeatherDisplay:10.37,2013-12-08 03:45:00,
2013-12-07 22:50:00,27.9,18.0,30.57,NNW,345,0.6,1.5,66,0.00,BKN,,0.01,0.0,WeatherDisplay:10.37,2013-12-08 03:50:00,
2013-12-07 22:55:00,28.1,17.8,30.57,NNW,346,0.0,0.0,65,0.00,BKN,,0.01,0.0,WeatherDisplay:10.37,2013-12-08 03:55:00,
2013-12-07 23:00:00,28.1,17.8,30.56,NNW,346,0.0,0.0,65,0.00,BKN,,0.01,0.0,WeatherDisplay:10.37,2013-12-08 04:00:00,
2013-12-07 23:05:00,27.9,18.0,30.55,NNW,344,2.7,4.6,66,0.00,SCT,,0.01,0.0,WeatherDisplay:10.37,2013-12-08 04:05:00,
2013-12-07 23:10:00,28.1,18.2,30.57,NNW,338,0.0,0.0,66,0.00,SCT,,0.01,0.0,WeatherDisplay:10.37,2013-12-08 04:10:00,
2013-12-07 23:15:00,27.9,17.6,30.56,NNW,338,0.0,0.0,65,0.00,SCT,,0.01,0.0,WeatherDisplay:10.37,2013-12-08 04:15:00,
2013-12-07 23:20:00,27.6,17.7,30.56,NNW,338,3.4,4.6,66,0.00,SCT,,0.01,0.0,WeatherDisplay:10.37,2013-12-08 04:20:00,
2013-12-07 23:25:00,27.6,17.7,30.56,NW,324,2.8,4.6,66,0.00,SCT,,0.01,0.0,WeatherDisplay:10.37,2013-12-08 04:25:00,
2013-12-07 23:30:00,27.8,17.9,30.56,NW,323,0.0,1.2,66,0.00,SCT,,0.01,0.0,WeatherDisplay:10.37,2013-12-08 04:30:00,
2013-12-07 23:35:00,27.8,17.6,30.57,NW,324,0.0,0.0,65,0.00,SCT,,0.01,0.0,WeatherDisplay:10.37,2013-12-08 04:35:00,
2013-12-07 23:40:00,27.5,17.3,30.56,NW,324,0.0,0.0,65,0.00,SCT,,0.01,0.0,WeatherDisplay:10.37,2013-12-08 04:40:00,
2013-12-07 23:45:00,26.9,17.0,30.56,NW,323,0.0,0.0,66,0.00,SCT,,0.01,0.0,WeatherDisplay:10.37,2013-12-08 04:45:00,
2013-12-07 23:50:00,26.4,16.6,30.56,NW,324,0.0,0.0,66,0.00,SCT,,0.01,0.0,WeatherDisplay:10.37,2013-12-08 04:50:00,
2013-12-07 23:55:00,26.1,16.3,30.57,NW,323,0.0,0.0,66,0.00,SCT,,0.01,0.0,WeatherDisplay:10.37,2013-12-08 04:55:00,